createdAt,value
2018-05-03T00:00:23.579Z,7.40
2018-05-03T00:02:50.332Z,8.13
2018-05-03T00:05:17.090Z,8.70
2018-05-03T00:07:43.891Z,8.03
2018-05-03T00:10:10.631Z,8.70
2018-05-03T00:12:37.396Z,8.20
2018-05-03T00:15:04.129Z,8.30
2018-05-03T00:17:30.894Z,8.43
2018-05-03T00:19:57.692Z,7.00
2018-05-03T00:22:24.452Z,8.07
2018-05-03T00:24:51.192Z,7.93
2018-05-03T00:27:17.957Z,8.40
2018-05-03T00:29:44.719Z,7.33
2018-05-03T00:32:11.515Z,7.50
2018-05-03T00:34:38.277Z,7.80
2018-05-03T00:37:05.036Z,8.00
2018-05-03T00:39:31.811Z,8.00
2018-05-03T00:41:58.553Z,8.80
2018-05-03T00:44:25.351Z,8.80
2018-05-03T00:46:52.798Z,8.60
2018-05-03T00:49:19.548Z,8.20
2018-05-03T00:51:46.320Z,7.47
2018-05-03T00:54:18.905Z,7.47
2018-05-03T00:56:46.002Z,7.03
2018-05-03T00:59:12.751Z,7.40
2018-05-03T01:01:39.514Z,7.60
2018-05-03T01:04:06.273Z,7.97
2018-05-03T01:06:33.036Z,8.30
2018-05-03T01:08:59.817Z,7.27
2018-05-03T01:11:26.556Z,8.67
2018-05-03T01:13:53.304Z,7.50
2018-05-03T01:16:20.703Z,8.53
2018-05-03T01:18:47.454Z,7.83
2018-05-03T01:21:14.613Z,7.60
2018-05-03T01:23:41.383Z,7.70
2018-05-03T01:26:08.141Z,7.63
2018-05-03T01:28:34.901Z,9.70
2018-05-03T01:31:01.643Z,7.77
2018-05-03T01:33:28.444Z,8.90
2018-05-03T01:36:01.096Z,7.73
2018-05-03T01:38:27.911Z,8.77
2018-05-03T01:40:54.655Z,9.03
2018-05-03T01:43:21.416Z,7.73
2018-05-03T01:45:48.201Z,8.00
2018-05-03T01:48:14.956Z,8.50
2018-05-03T01:50:41.741Z,8.03
2018-05-03T01:53:08.481Z,8.33
2018-05-03T01:55:35.244Z,8.63
2018-05-03T01:58:02.007Z,7.80
2018-05-03T02:00:28.747Z,9.10
2018-05-03T02:02:55.532Z,8.33
2018-05-03T02:05:22.304Z,8.30
2018-05-03T02:07:49.068Z,7.70
2018-05-03T02:10:15.811Z,9.43
2018-05-03T02:12:42.547Z,8.20
2018-05-03T02:15:09.323Z,8.63
2018-05-03T02:17:36.062Z,7.53
2018-05-03T02:20:02.801Z,8.30
2018-05-03T02:22:29.584Z,8.83
2018-05-03T02:24:56.649Z,8.30
2018-05-03T02:27:23.426Z,9.63
2018-05-03T02:29:50.169Z,8.70
2018-05-03T02:32:16.906Z,8.40
2018-05-03T02:34:44.264Z,8.47
2018-05-03T02:37:11.057Z,10.13
2018-05-03T02:39:37.913Z,8.30
2018-05-03T02:42:04.646Z,8.30
2018-05-03T02:44:31.408Z,8.40
2018-05-03T02:46:58.179Z,9.43
2018-05-03T02:49:24.917Z,8.80
2018-05-03T02:51:51.722Z,9.00
2018-05-03T02:54:18.492Z,9.37
2018-05-03T02:56:45.242Z,8.53
2018-05-03T02:59:17.701Z,8.93
2018-05-03T03:01:54.287Z,9.07
2018-05-03T03:04:32.677Z,8.93
2018-05-03T03:07:11.056Z,9.27
2018-05-03T03:10:03.223Z,8.60
2018-05-03T03:12:52.309Z,9.40
2018-05-03T03:15:30.834Z,9.73
2018-05-03T03:18:09.157Z,8.67
2018-05-03T03:20:42.716Z,9.57
2018-05-03T03:23:21.263Z,9.87
2018-05-03T03:26:11.629Z,9.23
2018-05-03T03:28:50.009Z,8.80
2018-05-03T03:31:28.560Z,9.10
2018-05-03T03:34:01.107Z,9.13
2018-05-03T03:36:47.514Z,9.30
2018-05-03T03:39:20.015Z,8.90
2018-05-03T03:41:46.869Z,9.00
2018-05-03T03:44:19.388Z,8.90
2018-05-03T03:46:46.684Z,8.60
2018-05-03T03:49:13.468Z,9.00
2018-05-03T03:51:40.235Z,8.70
2018-05-03T03:54:07.018Z,8.30
2018-05-03T03:56:33.780Z,9.13
2018-05-03T03:59:00.578Z,9.00
2018-05-03T04:01:27.370Z,10.40
2018-05-03T04:03:54.126Z,9.00
2018-05-03T04:06:20.965Z,9.40
2018-05-03T04:08:47.730Z,9.53
2018-05-03T04:11:14.470Z,9.27
2018-05-03T04:13:41.248Z,9.50
2018-05-03T04:16:08.012Z,8.57
2018-05-03T04:18:40.686Z,9.90
2018-05-03T04:21:13.181Z,9.97
2018-05-03T04:23:45.733Z,9.67
2018-05-03T04:26:12.535Z,8.97
2018-05-03T04:28:39.277Z,9.73
2018-05-03T04:31:06.056Z,9.17
2018-05-03T04:33:32.831Z,10.10
2018-05-03T04:35:59.577Z,9.50
2018-05-03T04:38:26.854Z,10.83
2018-05-03T04:40:53.618Z,9.20
2018-05-03T04:43:20.369Z,9.50
2018-05-03T04:45:47.648Z,9.77
2018-05-03T04:48:14.384Z,9.60
2018-05-03T04:50:41.222Z,9.87
2018-05-03T04:53:08.176Z,10.20
2018-05-03T04:55:34.951Z,10.13
2018-05-03T04:58:01.700Z,9.63
2018-05-03T05:00:28.464Z,10.57
2018-05-03T05:02:55.273Z,11.07
2018-05-03T05:05:22.051Z,10.27
2018-05-03T05:07:48.845Z,11.37
2018-05-03T05:10:15.628Z,10.40
2018-05-03T05:12:42.369Z,12.10
2018-05-03T05:15:09.208Z,11.27
2018-05-03T05:17:35.989Z,10.70
2018-05-03T05:20:02.748Z,13.50
2018-05-03T05:22:29.511Z,13.57
2018-05-03T05:24:56.293Z,13.40
2018-05-03T05:27:23.101Z,10.57
2018-05-03T05:29:50.495Z,13.90
2018-05-03T05:32:17.291Z,15.77
2018-05-03T05:34:44.073Z,16.10
2018-05-03T05:37:10.811Z,12.40
2018-05-03T05:39:37.603Z,15.17
2018-05-03T05:42:04.348Z,14.83
2018-05-03T05:44:31.111Z,13.70
2018-05-03T05:46:57.867Z,13.13
2018-05-03T05:49:24.623Z,9.70
2018-05-03T05:51:51.452Z,9.37
2018-05-03T05:54:18.209Z,10.20
2018-05-03T05:56:45.061Z,10.03
2018-05-03T05:59:11.792Z,10.30
2018-05-03T06:01:39.009Z,6.90
2018-05-03T06:04:05.790Z,7.00
2018-05-03T06:06:32.529Z,6.13
2018-05-03T06:08:59.263Z,4.63
2018-05-03T06:11:26.020Z,4.90
2018-05-03T06:13:52.764Z,3.97
2018-05-03T06:16:19.542Z,1.90
2018-05-03T06:18:46.313Z,3.40
2018-05-03T06:21:13.396Z,3.33
2018-05-03T06:23:40.171Z,3.10
2018-05-03T06:26:06.945Z,3.97
2018-05-03T06:28:33.730Z,2.10
2018-05-03T06:31:00.493Z,2.40
2018-05-03T06:33:27.264Z,3.57
2018-05-03T06:35:54.045Z,2.90
2018-05-03T06:38:20.778Z,3.10
2018-05-03T06:40:47.575Z,2.80
2018-05-03T06:43:14.346Z,2.40
2018-05-03T06:45:41.089Z,3.33
2018-05-03T06:48:07.829Z,3.00
2018-05-03T06:50:34.621Z,3.83
2018-05-03T06:53:01.409Z,2.80
2018-05-03T06:55:28.172Z,3.53
2018-05-03T06:57:54.920Z,3.10
2018-05-03T07:00:21.711Z,3.03
2018-05-03T07:02:48.457Z,3.33
2018-05-03T07:05:15.228Z,3.17
2018-05-03T07:07:41.989Z,2.73
2018-05-03T07:10:08.758Z,3.40
2018-05-03T07:12:35.499Z,1.97
2018-05-03T07:15:02.240Z,1.80
2018-05-03T07:17:29.032Z,2.70
2018-05-03T07:19:55.769Z,2.70
2018-05-03T07:22:22.506Z,3.10
2018-05-03T07:24:49.514Z,2.90
2018-05-03T07:27:16.262Z,3.27
2018-05-03T07:29:43.046Z,2.67
2018-05-03T07:32:09.813Z,2.50
2018-05-03T07:34:36.587Z,2.40
2018-05-03T07:37:03.357Z,2.47
2018-05-03T07:39:30.095Z,2.40
2018-05-03T07:41:56.915Z,2.30
2018-05-03T07:44:23.667Z,3.70
2018-05-03T07:46:50.397Z,2.30
2018-05-03T07:49:17.126Z,2.60
2018-05-03T07:51:43.952Z,2.97
2018-05-03T07:54:10.717Z,2.07
2018-05-03T07:56:37.557Z,2.33
2018-05-03T07:59:04.309Z,2.80
2018-05-03T08:01:31.053Z,1.93
2018-05-03T08:03:57.798Z,2.70
2018-05-03T08:06:24.573Z,1.60
2018-05-03T08:08:51.302Z,1.80
2018-05-03T08:11:18.067Z,1.67
2018-05-03T08:13:45.355Z,1.73
2018-05-03T08:16:12.126Z,1.63
2018-05-03T08:18:38.942Z,2.47
2018-05-03T08:21:05.719Z,2.23
2018-05-03T08:23:32.456Z,2.30
2018-05-03T08:25:59.394Z,1.50
2018-05-03T08:28:26.140Z,1.90
2018-05-03T08:30:53.002Z,1.93
2018-05-03T08:33:19.825Z,2.10
2018-05-03T08:35:46.591Z,2.47
2018-05-03T08:38:14.113Z,2.40
2018-05-03T08:40:40.872Z,1.90
2018-05-03T08:43:07.663Z,1.80
2018-05-03T08:45:34.431Z,2.87
2018-05-03T08:48:01.184Z,1.83
2018-05-03T08:50:27.925Z,1.80
2018-05-03T08:52:55.348Z,2.20
2018-05-03T08:55:22.147Z,2.30
2018-05-03T08:57:48.896Z,1.50
2018-05-03T09:00:15.638Z,2.00
2018-05-03T09:02:42.378Z,1.90
2018-05-03T09:05:09.141Z,2.23
2018-05-03T09:07:36.009Z,1.73
2018-05-03T09:10:03.433Z,1.60
2018-05-03T09:12:30.220Z,1.00
2018-05-03T09:14:57.923Z,1.43
2018-05-03T09:17:24.684Z,1.23
2018-05-03T09:19:51.491Z,1.20
2018-05-03T09:22:18.252Z,1.43
2018-05-03T09:24:45.272Z,1.37
2018-05-03T09:27:12.348Z,1.60
2018-05-03T09:29:39.115Z,1.23
2018-05-03T09:32:05.972Z,1.70
2018-05-03T09:34:33.032Z,1.40
2018-05-03T09:36:59.790Z,2.00
2018-05-03T09:39:27.165Z,1.77
2018-05-03T09:41:53.897Z,2.10
2018-05-03T09:44:20.673Z,1.63
2018-05-03T09:46:47.448Z,1.37
2018-05-03T09:49:14.215Z,1.70
2018-05-03T09:51:40.980Z,2.10
2018-05-03T09:54:07.769Z,2.17
2018-05-03T09:56:34.537Z,1.43
2018-05-03T09:59:01.305Z,1.50
2018-05-03T10:01:28.057Z,2.07
2018-05-03T10:03:55.079Z,1.10
2018-05-03T10:06:22.127Z,1.50
2018-05-03T10:08:48.911Z,1.60
2018-05-03T10:11:15.656Z,2.10
2018-05-03T10:13:42.417Z,1.57
2018-05-03T10:16:09.422Z,1.60
2018-05-03T10:18:36.181Z,1.87
2018-05-03T10:21:03.593Z,2.20
2018-05-03T10:23:30.333Z,2.33
2018-05-03T10:25:57.104Z,1.70
2018-05-03T10:28:23.853Z,1.50
2018-05-03T10:30:50.619Z,1.93
2018-05-03T10:33:17.406Z,1.90
2018-05-03T10:35:44.187Z,1.77
2018-05-03T10:38:10.925Z,2.27
2018-05-03T10:40:37.668Z,2.53
2018-05-03T10:43:04.405Z,2.47
2018-05-03T10:45:31.255Z,1.90
2018-05-03T10:47:58.002Z,1.10
2018-05-03T10:50:24.768Z,1.07
2018-05-03T10:52:51.537Z,2.00
2018-05-03T10:55:18.322Z,2.23
2018-05-03T10:57:45.097Z,1.53
2018-05-03T11:00:11.852Z,2.20
2018-05-03T11:02:38.623Z,1.80
2018-05-03T11:05:05.384Z,1.60
2018-05-03T11:07:32.171Z,1.40
2018-05-03T11:09:58.987Z,0.90
2018-05-03T11:12:25.750Z,1.97
2018-05-03T11:14:52.521Z,2.20
2018-05-03T11:17:19.282Z,2.27
2018-05-03T11:19:46.715Z,1.90
2018-05-03T11:22:14.141Z,1.50
2018-05-03T11:24:40.872Z,1.40
2018-05-03T11:27:07.629Z,1.33
2018-05-03T11:29:34.417Z,0.80
2018-05-03T11:32:01.162Z,1.80
2018-05-03T11:34:27.958Z,1.60
2018-05-03T11:36:54.774Z,1.00
2018-05-03T11:39:21.499Z,1.90
2018-05-03T11:41:48.237Z,1.30
2018-05-03T11:44:14.976Z,1.50
2018-05-03T11:46:41.818Z,1.90
2018-05-03T11:49:08.850Z,1.53
2018-05-03T11:51:35.615Z,1.80
2018-05-03T11:54:02.376Z,1.00
2018-05-03T11:56:29.121Z,1.40
2018-05-03T11:58:55.923Z,1.63
2018-05-03T12:01:22.783Z,1.30
2018-05-03T12:03:49.551Z,1.30
2018-05-03T12:06:16.296Z,1.50
2018-05-03T12:08:43.071Z,1.90
2018-05-03T12:11:09.915Z,1.10
2018-05-03T12:13:36.689Z,1.00
2018-05-03T12:16:03.444Z,1.00
2018-05-03T12:18:30.240Z,0.90
2018-05-03T12:20:56.991Z,1.33
2018-05-03T12:23:23.749Z,2.07
2018-05-03T12:25:50.556Z,1.63
2018-05-03T12:28:17.298Z,1.17
2018-05-03T12:30:44.065Z,1.90
2018-05-03T12:33:10.875Z,1.80
2018-05-03T12:35:37.652Z,1.30
2018-05-03T12:38:04.406Z,1.33
2018-05-03T12:40:31.206Z,1.10
2018-05-03T12:42:57.949Z,0.73
2018-05-03T12:45:24.685Z,1.10
2018-05-03T12:47:51.474Z,1.20
2018-05-03T12:50:18.232Z,1.23
2018-05-03T12:52:44.973Z,1.17
2018-05-03T12:55:11.712Z,1.17
2018-05-03T12:57:38.792Z,1.57
2018-05-03T13:00:05.564Z,1.17
2018-05-03T13:02:32.341Z,1.70
2018-05-03T13:04:59.085Z,1.50
2018-05-03T13:07:26.166Z,1.80
2018-05-03T13:09:52.973Z,1.10
2018-05-03T13:12:20.221Z,1.87
2018-05-03T13:14:46.957Z,1.07
2018-05-03T13:17:14.207Z,1.30
2018-05-03T13:19:40.984Z,1.43
2018-05-03T13:22:07.772Z,1.63
2018-05-03T13:24:34.505Z,1.20
2018-05-03T13:27:01.247Z,2.07
2018-05-03T13:29:28.012Z,1.73
2018-05-03T13:31:54.773Z,1.33
2018-05-03T13:34:21.556Z,2.87
2018-05-03T13:36:48.322Z,1.27
2018-05-03T13:39:15.073Z,1.53
2018-05-03T13:41:41.847Z,1.60
2018-05-03T13:44:08.585Z,1.43
2018-05-03T13:46:35.930Z,1.20
2018-05-03T13:49:02.685Z,1.50
2018-05-03T13:51:29.444Z,1.60
2018-05-03T13:53:56.200Z,0.90
2018-05-03T13:56:22.964Z,1.27
2018-05-03T13:58:49.763Z,0.80
2018-05-03T14:01:16.519Z,1.17
2018-05-03T14:03:43.285Z,1.37
2018-05-03T14:06:10.042Z,0.83
2018-05-03T14:08:36.807Z,1.20
2018-05-03T14:11:03.633Z,1.43
2018-05-03T14:13:30.381Z,1.37
2018-05-03T14:15:57.147Z,0.90
2018-05-03T14:18:23.901Z,1.00
2018-05-03T14:20:50.735Z,1.50
2018-05-03T14:23:17.500Z,1.00
2018-05-03T14:25:44.271Z,1.00
2018-05-03T14:28:11.028Z,1.20
2018-05-03T14:30:37.772Z,1.23
2018-05-03T14:33:04.575Z,1.57
2018-05-03T14:35:31.380Z,1.23
2018-05-03T14:37:58.125Z,1.50
2018-05-03T14:40:24.880Z,1.60
2018-05-03T14:42:51.624Z,1.10
2018-05-03T14:45:18.863Z,1.33
2018-05-03T14:47:45.672Z,1.37
2018-05-03T14:50:12.405Z,1.10
2018-05-03T14:52:39.164Z,1.30
2018-05-03T14:55:05.979Z,1.53
2018-05-03T14:57:33.121Z,1.23
2018-05-03T14:59:59.895Z,1.50
2018-05-03T15:02:26.653Z,1.17
2018-05-03T15:04:53.431Z,1.50
2018-05-03T15:07:20.173Z,1.50
2018-05-03T15:09:46.937Z,1.30
2018-05-03T15:12:13.739Z,1.43
2018-05-03T15:14:40.494Z,1.80
2018-05-03T15:17:07.235Z,1.50
2018-05-03T15:19:33.973Z,1.50
2018-05-03T15:22:00.717Z,1.40
2018-05-03T15:24:27.528Z,1.00
2018-05-03T15:26:54.300Z,1.10
2018-05-03T15:29:21.064Z,1.33
2018-05-03T15:31:47.811Z,1.70
2018-05-03T15:34:14.870Z,1.60
2018-05-03T15:36:41.659Z,1.70
2018-05-03T15:39:08.422Z,1.47
2018-05-03T15:41:35.228Z,1.10
2018-05-03T15:44:01.989Z,1.17
2018-05-03T15:46:29.214Z,1.10
2018-05-03T15:48:55.997Z,1.00
2018-05-03T15:51:23.035Z,1.70
2018-05-03T15:53:49.842Z,1.37
2018-05-03T15:56:17.290Z,1.70
2018-05-03T15:58:44.069Z,1.73
2018-05-03T16:01:11.080Z,1.37
2018-05-03T16:03:37.845Z,1.50
2018-05-03T16:06:04.599Z,1.30
2018-05-03T16:08:31.948Z,1.40
2018-05-03T16:11:01.580Z,1.20
2018-05-03T16:13:29.421Z,2.40
2018-05-03T16:15:57.116Z,1.53
2018-05-03T16:18:35.409Z,1.43
2018-05-03T16:21:02.472Z,1.77
2018-05-03T16:23:30.329Z,1.77
2018-05-03T16:25:57.101Z,1.60
2018-05-03T16:28:23.848Z,1.33
2018-05-03T16:30:50.622Z,2.17
2018-05-03T16:33:17.364Z,1.40
2018-05-03T16:35:44.124Z,1.10
2018-05-03T16:38:10.875Z,1.37
2018-05-03T16:40:39.623Z,1.40
2018-05-03T16:43:06.603Z,1.83
2018-05-03T16:45:33.329Z,1.30
2018-05-03T16:48:01.188Z,1.60
2018-05-03T16:50:30.227Z,2.13
2018-05-03T16:52:58.913Z,2.10
2018-05-03T16:55:25.719Z,1.40
2018-05-03T16:57:52.477Z,2.40
2018-05-03T17:00:19.222Z,1.77
2018-05-03T17:02:45.960Z,1.20
2018-05-03T17:05:12.880Z,1.20
2018-05-03T17:07:39.697Z,1.43
2018-05-03T17:10:07.466Z,2.20
2018-05-03T17:12:34.200Z,1.67
2018-05-03T17:15:01.553Z,1.43
2018-05-03T17:17:28.352Z,1.57
2018-05-03T17:19:55.143Z,1.30
2018-05-03T17:22:21.908Z,1.80
2018-05-03T17:24:48.701Z,1.37
2018-05-03T17:27:15.467Z,1.30
2018-05-03T17:29:42.225Z,1.40
2018-05-03T17:32:08.994Z,1.27
2018-05-03T17:34:35.733Z,1.50
2018-05-03T17:37:02.466Z,1.50
2018-05-03T17:39:29.213Z,2.00
2018-05-03T17:41:56.016Z,1.73
2018-05-03T17:44:22.893Z,1.70
2018-05-03T17:46:49.599Z,1.40
2018-05-03T17:49:16.343Z,1.77
2018-05-03T17:51:43.314Z,2.00
2018-05-03T17:54:10.056Z,1.50
2018-05-03T17:56:37.600Z,1.70
2018-05-03T17:59:04.349Z,1.93
2018-05-03T18:01:31.127Z,1.27
2018-05-03T18:03:58.543Z,1.73
2018-05-03T18:06:26.298Z,0.90
2018-05-03T18:08:53.107Z,1.30
2018-05-03T18:11:19.895Z,1.53
2018-05-03T18:13:46.665Z,1.30
2018-05-03T18:16:13.474Z,1.40
2018-05-03T18:18:40.241Z,2.13
2018-05-03T18:21:07.048Z,1.80
2018-05-03T18:23:33.789Z,1.30
2018-05-03T18:26:00.551Z,1.40
2018-05-03T18:28:27.283Z,2.23
2018-05-03T18:30:54.043Z,1.60
2018-05-03T18:33:20.817Z,1.67
2018-05-03T18:35:47.561Z,1.00
2018-05-03T18:38:14.337Z,1.40
2018-05-03T18:40:41.121Z,2.20
2018-05-03T18:43:07.868Z,1.50
2018-05-03T18:45:34.656Z,1.60
2018-05-03T18:48:01.411Z,1.13
2018-05-03T18:50:28.164Z,1.70
2018-05-03T18:52:54.926Z,1.50
2018-05-03T18:55:21.685Z,1.37
2018-05-03T18:57:48.465Z,2.00
2018-05-03T19:00:15.817Z,1.70
2018-05-03T19:02:42.573Z,1.70
2018-05-03T19:05:09.352Z,1.80
2018-05-03T19:07:36.166Z,1.53
2018-05-03T19:10:03.899Z,1.20
2018-05-03T19:12:30.629Z,1.73
2018-05-03T19:14:57.494Z,1.77
2018-05-03T19:17:24.282Z,1.90
2018-05-03T19:19:51.025Z,1.20
2018-05-03T19:22:17.797Z,1.70
2018-05-03T19:24:44.533Z,1.10
2018-05-03T19:27:11.288Z,1.97
2018-05-03T19:29:38.280Z,1.63
2018-05-03T19:32:05.065Z,1.63
2018-05-03T19:34:31.853Z,1.90
2018-05-03T19:36:58.594Z,2.60
2018-05-03T19:39:25.333Z,2.10
2018-05-03T19:41:52.132Z,1.90
2018-05-03T19:44:18.910Z,2.03
2018-05-03T19:46:45.677Z,2.03
2018-05-03T19:49:12.432Z,1.70
2018-05-03T19:51:39.559Z,2.77
2018-05-03T19:54:07.071Z,2.60
2018-05-03T19:56:33.829Z,2.27
2018-05-03T19:59:00.626Z,1.93
2018-05-03T20:01:27.650Z,2.17
2018-05-03T20:03:54.381Z,1.67
2018-05-03T20:06:21.475Z,2.40
2018-05-03T20:08:48.367Z,2.37
2018-05-03T20:11:15.188Z,2.53
2018-05-03T20:13:41.939Z,2.63
2018-05-03T20:16:08.686Z,2.70
2018-05-03T20:18:35.662Z,1.70
2018-05-03T20:21:02.450Z,1.83
2018-05-03T20:23:29.308Z,2.00
2018-05-03T20:25:56.097Z,2.00
2018-05-03T20:28:22.872Z,1.80
2018-05-03T20:30:49.630Z,1.57
2018-05-03T20:33:16.745Z,2.03
2018-05-03T20:35:43.549Z,1.90
2018-05-03T20:38:10.312Z,2.53
2018-05-03T20:40:37.084Z,2.00
2018-05-03T20:43:03.887Z,1.80
2018-05-03T20:45:30.680Z,3.77
2018-05-03T20:47:57.483Z,2.00
2018-05-03T20:50:24.325Z,2.57
2018-05-03T20:52:51.057Z,2.57
2018-05-03T20:55:18.731Z,2.10
2018-05-03T20:57:45.517Z,2.43
2018-05-03T21:00:12.325Z,1.80
2018-05-03T21:03:12.064Z,2.13
2018-05-03T21:05:38.813Z,2.53
2018-05-03T21:08:06.190Z,2.40
2018-05-03T21:10:32.970Z,3.07
2018-05-03T21:12:59.728Z,2.53
2018-05-03T21:15:26.473Z,2.90
2018-05-03T21:17:53.254Z,2.90
2018-05-03T21:20:20.020Z,2.80
2018-05-03T21:22:46.765Z,3.30
2018-05-03T21:25:13.536Z,2.00
2018-05-03T21:27:40.286Z,2.33
2018-05-03T21:30:07.750Z,2.13
2018-05-03T21:32:34.519Z,2.43
2018-05-03T21:35:01.298Z,2.40
2018-05-03T21:37:28.058Z,2.40
2018-05-03T21:39:55.390Z,2.80
2018-05-03T21:42:22.144Z,2.10
2018-05-03T21:44:49.366Z,2.97
2018-05-03T21:47:16.113Z,2.67
2018-05-03T21:49:42.876Z,2.90
2018-05-03T21:52:09.626Z,2.77
2018-05-03T21:54:36.433Z,2.00
2018-05-03T21:57:03.173Z,2.90
2018-05-03T21:59:29.931Z,3.00
2018-05-03T22:01:56.880Z,3.00
2018-05-03T22:04:23.644Z,2.20
2018-05-03T22:06:50.409Z,2.90
2018-05-03T22:09:17.145Z,2.93
2018-05-03T22:11:43.940Z,2.50
2018-05-03T22:14:10.689Z,2.77
2018-05-03T22:16:37.421Z,3.80
2018-05-03T22:19:04.199Z,3.20
2018-05-03T22:21:30.936Z,2.40
2018-05-03T22:23:57.688Z,2.97
2018-05-03T22:26:24.432Z,3.20
2018-05-03T22:28:51.169Z,2.90
2018-05-03T22:31:17.938Z,3.10
2018-05-03T22:33:44.677Z,3.80
2018-05-03T22:36:11.414Z,4.00
2018-05-03T22:38:38.164Z,3.60
2018-05-03T22:41:04.921Z,2.90
2018-05-03T22:43:31.701Z,2.90
2018-05-03T22:45:58.441Z,3.50
2018-05-03T22:48:25.198Z,4.30
2018-05-03T22:50:51.948Z,4.07
2018-05-03T22:53:18.689Z,4.50
2018-05-03T22:55:46.084Z,4.10
2018-05-03T22:58:12.829Z,3.63
2018-05-03T23:00:39.575Z,2.73
2018-05-03T23:03:06.328Z,3.97
2018-05-03T23:05:33.111Z,3.80
2018-05-03T23:07:59.885Z,3.90
2018-05-03T23:10:26.624Z,3.77
2018-05-03T23:12:53.389Z,3.90
2018-05-03T23:15:20.128Z,2.70
2018-05-03T23:17:46.869Z,3.37
2018-05-03T23:20:13.672Z,3.00
2018-05-03T23:22:40.417Z,2.90
2018-05-03T23:25:07.589Z,3.40
2018-05-03T23:27:34.543Z,5.20
2018-05-03T23:30:01.305Z,5.10
2018-05-03T23:32:28.086Z,4.43
2018-05-03T23:34:54.825Z,4.23
2018-05-03T23:37:22.049Z,3.70
2018-05-03T23:39:48.832Z,3.80
2018-05-03T23:42:16.355Z,3.37
2018-05-03T23:44:43.139Z,2.57
2018-05-03T23:47:09.895Z,3.03
2018-05-03T23:49:36.640Z,4.10
2018-05-03T23:52:03.387Z,3.70
2018-05-03T23:54:30.153Z,3.20
2018-05-03T23:56:56.933Z,3.37
2018-05-03T23:59:23.672Z,3.33
